| time (UTC) | temp C | wind direction | speed KPH | gust KPH | rain 1hr cm | rain 24hr cm | rain mn cm | humidity % | barometer mb |
| 20260508125939 | 27 | 202 | 0.0 | 0.0 | 0.00 | 0.00 | 0.00 | 85 | 1009.4 |
| 20260508125435 | 27 | 206 | 0.0 | 0.0 | 0.00 | 0.00 | 0.00 | 84 | 1009.4 |
| 20260508124933 | 27 | 206 | 0.0 | 0.0 | 0.00 | 0.00 | 0.00 | 84 | 1009.4 |
| 20260508124431 | 27 | 206 | 0.0 | 0.0 | 0.00 | 0.00 | 0.00 | 84 | 1009.5 |
| 20260508123928 | 27 | 197 | 0.0 | 0.0 | 0.00 | 0.00 | 0.00 | 84 | 1009.3 |
| 20260508123427 | 27 | 197 | 0.0 | 0.0 | 0.00 | 0.00 | 0.00 | 83 | 1009.2 |
| 20260508122923 | 27 | 198 | 0.0 | 0.0 | 0.00 | 0.00 | 0.00 | 83 | 1009.2 |
| 20260508122420 | 27 | 202 | 0.0 | 0.0 | 0.00 | 0.00 | 0.00 | 82 | 1009.2 |
| 20260508121917 | 27 | 203 | 0.0 | 0.0 | 0.00 | 0.00 | 0.00 | 82 | 1009.2 |
| 20260508121415 | 27 | 202 | 0.0 | 0.0 | 0.00 | 0.00 | 0.00 | 82 | 1009.3 |
| 20260508120912 | 27 | 214 | 0.0 | 0.0 | 0.00 | 0.00 | 0.00 | 82 | 1009.3 |
| 20260508120410 | 27 | 222 | 0.0 | 0.0 | 0.00 | 0.00 | 0.00 | 82 | 1009.2 |
| 20260508115907 | 27 | 191 | 0.0 | 0.0 | 0.00 | 0.00 | 0.00 | 82 | 1009.0 |
| 20260508115405 | 28 | 189 | 0.0 | 0.0 | 0.00 | 0.00 | 0.00 | 81 | 1008.9 |
| 20260508114901 | 28 | 167 | 0.0 | 0.0 | 0.00 | 0.00 | 0.00 | 82 | 1008.6 |
| 20260508114358 | 28 | 187 | 0.0 | 0.0 | 0.00 | 0.00 | 0.00 | 83 | 1008.7 |
| 20260508113855 | 28 | 183 | 0.0 | 0.0 | 0.00 | 0.00 | 0.00 | 83 | 1008.4 |
| 20260508113353 | 28 | 182 | 0.0 | 0.0 | 0.00 | 0.00 | 0.00 | 84 | 1008.4 |
| 20260508112850 | 28 | 183 | 0.0 | 0.0 | 0.00 | 0.00 | 0.00 | 83 | 1008.5 |
| 20260508112347 | 28 | 181 | 0.0 | 0.0 | 0.00 | 0.00 | 0.00 | 84 | 1008.4 |
| 20260508111843 | 28 | 181 | 0.0 | 0.0 | 0.00 | 0.00 | 0.00 | 84 | 1008.7 |
| 20260508111340 | 28 | 195 | 0.0 | 0.0 | 0.00 | 0.00 | 0.00 | 83 | 1008.5 |
| 20260508110837 | 28 | 186 | 0.0 | 0.0 | 0.00 | 0.00 | 0.00 | 83 | 1008.4 |
| 20260508110335 | 28 | 186 | 0.0 | 0.0 | 0.00 | 0.00 | 0.00 | 83 | 1008.2 |
| 20260508105835 | 28 | 186 | 0.0 | 0.0 | 0.00 | 0.00 | 0.00 | 84 | 1008.4 |
| 20260508105331 | 28 | 186 | 0.0 | 0.0 | 0.00 | 0.00 | 0.00 | 83 | 1008.2 |
| 20260508104828 | 28 | 148 | 0.0 | 0.0 | 0.00 | 0.00 | 0.00 | 82 | 1008.4 |
| 20260508104325 | 28 | 186 | 0.0 | 0.0 | 0.00 | 0.00 | 0.00 | 82 | 1008.2 |
| 20260508103822 | 28 | 186 | 0.0 | 0.0 | 0.00 | 0.00 | 0.00 | 82 | 1008.2 |
| 20260508103319 | 28 | 186 | 0.0 | 0.0 | 0.00 | 0.00 | 0.00 | 82 | 1008.2 |
| 20260508102817 | 28 | 185 | 0.0 | 0.0 | 0.00 | 0.00 | 0.00 | 82 | 1008.2 |
| 20260508102315 | 28 | 201 | 0.0 | 1.6 | 0.00 | 0.00 | 0.00 | 81 | 1008.1 |
| 20260508101812 | 29 | 179 | 0.0 | 0.0 | 0.00 | 0.00 | 0.00 | 80 | 1008.0 |
| 20260508101309 | 29 | 169 | 0.0 | 0.0 | 0.00 | 0.00 | 0.00 | 80 | 1008.1 |
| 20260508100807 | 29 | 164 | 0.0 | 0.0 | 0.00 | 0.00 | 0.00 | 79 | 1008.0 |
| 20260508100305 | 29 | 164 | 0.0 | 0.0 | 0.00 | 0.00 | 0.00 | 78 | 1007.9 |
| 20260508095800 | 30 | 185 | 0.0 | 1.6 | 0.00 | 0.00 | 0.00 | 77 | 1007.8 |
| 20260508095258 | 30 | 188 | 0.0 | 0.0 | 0.00 | 0.00 | 0.00 | 75 | 1007.6 |
| 20260508094755 | 30 | 183 | 0.0 | 0.0 | 0.00 | 0.00 | 0.00 | 75 | 1007.8 |
| 20260508094252 | 30 | 124 | 0.0 | 1.6 | 0.00 | 0.00 | 0.00 | 75 | 1007.7 |
| 20260508093749 | 30 | 173 | 0.0 | 0.0 | 0.00 | 0.00 | 0.00 | 73 | 1007.4 |
| 20260508093247 | 31 | 96 | 0.0 | 1.6 | 0.00 | 0.00 | 0.00 | 72 | 1007.1 |
| 20260508092743 | 31 | 57 | 0.0 | 0.0 | 0.00 | 0.00 | 0.00 | 71 | 1007.4 |
| 20260508092242 | 31 | 285 | 0.0 | 0.0 | 0.00 | 0.00 | 0.00 | 71 | 1007.3 |
| 20260508091739 | 31 | 254 | 0.0 | 1.6 | 0.00 | 0.00 | 0.00 | 70 | 1007.3 |
| 20260508091236 | 31 | 9 | 0.0 | 4.8 | 0.00 | 0.00 | 0.00 | 70 | 1007.1 |
| 20260508090734 | 31 | 56 | 0.0 | 4.8 | 0.00 | 0.00 | 0.00 | 69 | 1007.2 |
| 20260508090231 | 31 | 156 | 4.8 | 9.7 | 0.00 | 0.00 | 0.00 | 69 | 1007.2 |
| 20260508085727 | 32 | 214 | 0.0 | 1.6 | 0.00 | 0.00 | 0.00 | 67 | 1007.3 |
| 20260508085224 | 32 | 115 | 1.6 | 3.2 | 0.00 | 0.00 | 0.00 | 67 | 1007.1 |
| 20260508084720 | 32 | 37 | 0.0 | 3.2 | 0.00 | 0.00 | 0.00 | 67 | 1006.9 |
| 20260508084218 | 32 | 15 | 1.6 | 4.8 | 0.00 | 0.00 | 0.00 | 68 | 1006.9 |
| 20260508083715 | 32 | 87 | 0.0 | 1.6 | 0.00 | 0.00 | 0.00 | 66 | 1007.0 |
| 20260508083213 | 32 | 283 | 1.6 | 3.2 | 0.00 | 0.00 | 0.00 | 66 | 1006.9 |
| 20260508082707 | 33 | 159 | 0.0 | 0.0 | 0.00 | 0.00 | 0.00 | 64 | 1007.0 |
| 20260508082205 | 33 | 305 | 4.8 | 6.4 | 0.00 | 0.00 | 0.00 | 64 | 1007.1 |
| 20260508081702 | 32 | 162 | 0.0 | 3.2 | 0.00 | 0.00 | 0.00 | 64 | 1006.8 |
| 20260508081158 | 32 | 203 | 0.0 | 0.0 | 0.00 | 0.00 | 0.00 | 65 | 1006.9 |
| 20260508080656 | 32 | 143 | 0.0 | 3.2 | 0.00 | 0.00 | 0.00 | 66 | 1006.7 |
| 20260508080154 | 32 | 185 | 0.0 | 3.2 | 0.00 | 0.00 | 0.00 | 66 | 1006.8 |
| 20260508075650 | 33 | 296 | 0.0 | 1.6 | 0.00 | 0.00 | 0.00 | 65 | 1006.9 |
| 20260508075148 | 33 | 169 | 1.6 | 3.2 | 0.00 | 0.00 | 0.00 | 62 | 1006.8 |
| 20260508074645 | 33 | 268 | 0.0 | 0.0 | 0.00 | 0.00 | 0.00 | 64 | 1007.0 |
| 20260508074142 | 33 | 49 | 0.0 | 1.6 | 0.00 | 0.00 | 0.00 | 64 | 1007.0 |
| 20260508073639 | 32 | 149 | 1.6 | 1.6 | 0.00 | 0.00 | 0.00 | 64 | 1007.1 |
| 20260508073137 | 32 | 312 | 0.0 | 0.0 | 0.00 | 0.00 | 0.00 | 65 | 1006.9 |
| 20260508072632 | 32 | 264 | 1.6 | 1.6 | 0.00 | 0.00 | 0.00 | 65 | 1006.9 |
| 20260508072130 | 33 | 336 | 1.6 | 3.2 | 0.00 | 0.00 | 0.00 | 63 | 1007.0 |
| 20260508071627 | 33 | 33 | 0.0 | 1.6 | 0.00 | 0.00 | 0.00 | 62 | 1006.9 |
| 20260508071125 | 33 | 260 | 0.0 | 3.2 | 0.00 | 0.00 | 0.00 | 64 | 1006.9 |
| 20260508070623 | 33 | 155 | 0.0 | 1.6 | 0.00 | 0.00 | 0.00 | 64 | 1007.0 |
| 20260508070121 | 33 | 109 | 0.0 | 1.6 | 0.00 | 0.00 | 0.00 | 63 | 1007.0 |
| 20260508065618 | 33 | 48 | 1.6 | 3.2 | 0.00 | 0.00 | 0.00 | 62 | 1006.9 |
| 20260508065115 | 34 | 109 | 0.0 | 1.6 | 0.00 | 0.00 | 0.00 | 61 | 1006.9 |
| 20260508064613 | 34 | 50 | 3.2 | 4.8 | 0.00 | 0.00 | 0.00 | 60 | 1006.9 |
| 20260508064111 | 35 | 175 | 3.2 | 6.4 | 0.00 | 0.00 | 0.00 | 59 | 1007.0 |
| 20260508063608 | 35 | 201 | 1.6 | 3.2 | 0.00 | 0.00 | 0.00 | 58 | 1006.8 |
| 20260508063106 | 34 | 111 | 1.6 | 9.7 | 0.00 | 0.00 | 0.00 | 59 | 1006.7 |
| 20260508062603 | 35 | 150 | 1.6 | 4.8 | 0.00 | 0.00 | 0.00 | 56 | 1006.9 |
| 20260508062100 | 36 | 121 | 3.2 | 9.7 | 0.00 | 0.00 | 0.00 | 55 | 1006.9 |
| 20260508061558 | 36 | 243 | 0.0 | 1.6 | 0.00 | 0.00 | 0.00 | 54 | 1007.0 |
| 20260508061055 | 36 | 204 | 1.6 | 4.8 | 0.00 | 0.00 | 0.00 | 56 | 1006.9 |
| 20260508060551 | 36 | 25 | 1.6 | 6.4 | 0.00 | 0.00 | 0.00 | 54 | 1007.1 |
| 20260508060048 | 36 | 136 | 1.6 | 4.8 | 0.00 | 0.00 | 0.00 | 55 | 1007.1 |
| 20260508055544 | 36 | 247 | 1.6 | 1.6 | 0.00 | 0.00 | 0.00 | 57 | 1007.1 |
| 20260508055041 | 36 | 163 | 0.0 | 3.2 | 0.00 | 0.00 | 0.00 | 55 | 1007.2 |
| 20260508054537 | 35 | 183 | 1.6 | 3.2 | 0.00 | 0.00 | 0.00 | 57 | 1007.3 |
| 20260508054035 | 36 | 34 | 1.6 | 6.4 | 0.00 | 0.00 | 0.00 | 55 | 1007.2 |
| 20260508053531 | 36 | 26 | 1.6 | 3.2 | 0.00 | 0.00 | 0.00 | 54 | 1007.2 |
| 20260508053030 | 36 | 38 | 1.6 | 3.2 | 0.00 | 0.00 | 0.00 | 54 | 1007.3 |
| 20260508052527 | 36 | 237 | 0.0 | 3.2 | 0.00 | 0.00 | 0.00 | 56 | 1007.3 |
| 20260508052023 | 36 | 145 | 1.6 | 1.6 | 0.00 | 0.00 | 0.00 | 56 | 1007.5 |
| 20260508051520 | 35 | 176 | 0.0 | 6.4 | 0.00 | 0.00 | 0.00 | 58 | 1007.4 |
| 20260508051015 | 35 | 49 | 1.6 | 4.8 | 0.00 | 0.00 | 0.00 | 59 | 1007.4 |
| 20260508050512 | 35 | 50 | 1.6 | 4.8 | 0.00 | 0.00 | 0.00 | 58 | 1007.7 |
| 20260508050009 | 35 | 61 | 3.2 | 6.4 | 0.00 | 0.00 | 0.00 | 58 | 1007.7 |
| 20260508045505 | 36 | 63 | 3.2 | 4.8 | 0.00 | 0.00 | 0.00 | 56 | 1007.6 |
| 20260508045003 | 35 | 302 | 1.6 | 4.8 | 0.00 | 0.00 | 0.00 | 59 | 1007.6 |
| 20260508044500 | 35 | 14 | 3.2 | 4.8 | 0.00 | 0.00 | 0.00 | 59 | 1007.8 |
| 20260508043955 | 35 | 216 | 3.2 | 4.8 | 0.00 | 0.00 | 0.00 | 60 | 1008.0 |
| 20260508043453 | 35 | 267 | 0.0 | 1.6 | 0.00 | 0.00 | 0.00 | 63 | 1007.8 |
| 20260508042948 | 35 | 167 | 1.6 | 3.2 | 0.00 | 0.00 | 0.00 | 61 | 1008.1 |
| 20260508042447 | 35 | 246 | 4.8 | 6.4 | 0.00 | 0.00 | 0.00 | 61 | 1008.0 |
| 20260508041943 | 36 | 265 | 1.6 | 1.6 | 0.00 | 0.00 | 0.00 | 58 | 1008.2 |
| 20260508041440 | 36 | 294 | 1.6 | 3.2 | 0.00 | 0.00 | 0.00 | 58 | 1008.0 |
| 20260508040937 | 36 | 313 | 0.0 | 4.8 | 0.00 | 0.00 | 0.00 | 58 | 1008.1 |
| 20260508040434 | 36 | 19 | 1.6 | 4.8 | 0.00 | 0.00 | 0.00 | 57 | 1008.1 |
| 20260508035932 | 35 | 343 | 3.2 | 4.8 | 0.00 | 0.00 | 0.00 | 59 | 1008.1 |
| 20260508035428 | 34 | 227 | 1.6 | 4.8 | 0.00 | 0.00 | 0.00 | 63 | 1008.2 |
| 20260508034925 | 34 | 151 | 1.6 | 1.6 | 0.00 | 0.00 | 0.00 | 62 | 1008.3 |
| 20260508034423 | 34 | 164 | 1.6 | 9.7 | 0.00 | 0.00 | 0.00 | 61 | 1008.3 |
| 20260508033919 | 34 | 141 | 3.2 | 6.4 | 0.00 | 0.00 | 0.00 | 63 | 1008.3 |
| 20260508033417 | 35 | 153 | 3.2 | 4.8 | 0.00 | 0.00 | 0.00 | 60 | 1008.4 |
| 20260508032914 | 35 | 193 | 0.0 | 3.2 | 0.00 | 0.00 | 0.00 | 61 | 1008.6 |
| 20260508032412 | 35 | 221 | 0.0 | 4.8 | 0.00 | 0.00 | 0.00 | 61 | 1008.7 |
| 20260508031908 | 35 | 163 | 1.6 | 3.2 | 0.00 | 0.00 | 0.00 | 60 | 1008.7 |
| 20260508031406 | 35 | 187 | 0.0 | 1.6 | 0.00 | 0.00 | 0.00 | 60 | 1008.7 |
| 20260508030901 | 34 | 50 | 1.6 | 4.8 | 0.00 | 0.00 | 0.00 | 62 | 1008.8 |
| 20260508030359 | 33 | 225 | 0.0 | 3.2 | 0.00 | 0.00 | 0.00 | 64 | 1008.8 |
| 20260508025856 | 33 | 270 | 0.0 | 1.6 | 0.00 | 0.00 | 0.00 | 65 | 1008.7 |
| 20260508025352 | 34 | 173 | 3.2 | 4.8 | 0.00 | 0.00 | 0.00 | 63 | 1008.8 |
| 20260508024849 | 34 | 334 | 0.0 | 1.6 | 0.00 | 0.00 | 0.00 | 63 | 1008.9 |
| 20260508024346 | 34 | 116 | 1.6 | 4.8 | 0.00 | 0.00 | 0.00 | 63 | 1009.1 |
| 20260508023843 | 35 | 337 | 3.2 | 3.2 | 0.00 | 0.00 | 0.00 | 62 | 1009.0 |
| 20260508023340 | 34 | 313 | 1.6 | 4.8 | 0.00 | 0.00 | 0.00 | 63 | 1009.1 |
| 20260508022837 | 34 | 227 | 3.2 | 3.2 | 0.00 | 0.00 | 0.00 | 62 | 1009.1 |
| 20260508022332 | 33 | 144 | 0.0 | 3.2 | 0.00 | 0.00 | 0.00 | 64 | 1009.1 |
| 20260508021830 | 32 | 149 | 0.0 | 3.2 | 0.00 | 0.00 | 0.00 | 68 | 1009.0 |
| 20260508021325 | 32 | 62 | 1.6 | 3.2 | 0.00 | 0.00 | 0.00 | 67 | 1009.0 |
| 20260508020821 | 32 | 253 | 0.0 | 6.4 | 0.00 | 0.00 | 0.00 | 71 | 1009.2 |
| 20260508020319 | 32 | 53 | 1.6 | 3.2 | 0.00 | 0.00 | 0.00 | 70 | 1009.6 |
| 20260508015816 | 32 | 293 | 0.0 | 1.6 | 0.00 | 0.00 | 0.00 | 70 | 1009.5 |
| 20260508015314 | 32 | 211 | 0.0 | 3.2 | 0.00 | 0.00 | 0.00 | 71 | 1009.3 |
| 20260508014810 | 32 | 220 | 1.6 | 4.8 | 0.00 | 0.00 | 0.00 | 71 | 1009.1 |
| 20260508014307 | 32 | 97 | 0.0 | 3.2 | 0.00 | 0.00 | 0.00 | 70 | 1009.4 |
| 20260508013803 | 32 | 210 | 0.0 | 4.8 | 0.00 | 0.00 | 0.00 | 70 | 1009.3 |
| 20260508013259 | 32 | 185 | 0.0 | 1.6 | 0.00 | 0.00 | 0.00 | 69 | 1009.2 |
| 20260508012757 | 32 | 168 | 0.0 | 1.6 | 0.00 | 0.00 | 0.00 | 69 | 1009.6 |
| 20260508012254 | 32 | 317 | 0.0 | 0.0 | 0.00 | 0.00 | 0.00 | 69 | 1009.5 |
| 20260508011752 | 32 | 48 | 0.0 | 3.2 | 0.00 | 0.00 | 0.00 | 69 | 1009.6 |
| 20260508011249 | 32 | 164 | 3.2 | 6.4 | 0.00 | 0.00 | 0.00 | 68 | 1009.3 |
| 20260508010746 | 33 | 114 | 0.0 | 3.2 | 0.00 | 0.00 | 0.00 | 68 | 1009.2 |
| 20260508010244 | 32 | 71 | 0.0 | 1.6 | 0.00 | 0.00 | 0.00 | 71 | 1009.1 |
| 20260508005741 | 32 | 226 | 0.0 | 0.0 | 0.00 | 0.00 | 0.00 | 72 | 1009.2 |
| 20260508005238 | 32 | 52 | 0.0 | 1.6 | 0.00 | 0.00 | 0.00 | 70 | 1009.3 |
| 20260508004733 | 31 | 135 | 0.0 | 1.6 | 0.00 | 0.00 | 0.00 | 73 | 1009.3 |
| 20260508004229 | 31 | 246 | 0.0 | 1.6 | 0.00 | 0.00 | 0.00 | 71 | 1009.5 |
| 20260508003726 | 31 | 154 | 0.0 | 1.6 | 0.00 | 0.00 | 0.00 | 72 | 1009.5 |
| 20260508003224 | 31 | 159 | 0.0 | 3.2 | 0.00 | 0.00 | 0.00 | 75 | 1009.6 |
| 20260508002720 | 31 | 156 | 0.0 | 1.6 | 0.00 | 0.00 | 0.00 | 75 | 1009.4 |
| 20260508002218 | 31 | 43 | 0.0 | 6.4 | 0.00 | 0.00 | 0.00 | 74 | 1009.3 |
| 20260508001713 | 31 | 359 | 0.0 | 0.0 | 0.00 | 0.00 | 0.00 | 75 | 1009.3 |
| 20260508001209 | 30 | 350 | 0.0 | 0.0 | 0.00 | 0.00 | 0.00 | 75 | 1009.2 |
| 20260508000705 | 30 | 187 | 0.0 | 1.6 | 0.00 | 0.00 | 0.00 | 79 | 1009.0 |
| 20260508000204 | 30 | 271 | 0.0 | 0.0 | 0.00 | 0.00 | 0.00 | 78 | 1009.0 |
| 20260507235659 | 30 | 164 | 0.0 | 0.0 | 0.00 | 0.00 | 0.00 | 76 | 1009.0 |
| 20260507235156 | 31 | 162 | 1.6 | 3.2 | 0.00 | 0.00 | 0.00 | 76 | 1008.8 |
| 20260507234653 | 30 | 304 | 0.0 | 0.0 | 0.00 | 0.00 | 0.00 | 77 | 1008.8 |
| 20260507234149 | 30 | 53 | 0.0 | 0.0 | 0.00 | 0.00 | 0.00 | 79 | 1008.9 |
| 20260507233646 | 29 | 162 | 0.0 | 0.0 | 0.00 | 0.00 | 0.00 | 81 | 1008.9 |
| 20260507233145 | 28 | 162 | 1.6 | 1.6 | 0.00 | 0.00 | 0.00 | 83 | 1008.7 |
| 20260507232641 | 28 | 256 | 0.0 | 1.6 | 0.00 | 0.00 | 0.00 | 86 | 1008.8 |
| 20260507232139 | 28 | 212 | 0.0 | 0.0 | 0.00 | 0.00 | 0.00 | 88 | 1008.7 |
| 20260507231635 | 27 | 210 | 0.0 | 0.0 | 0.00 | 0.00 | 0.00 | 88 | 1008.7 |
| 20260507231132 | 27 | 210 | 0.0 | 0.0 | 0.00 | 0.00 | 0.00 | 88 | 1008.7 |
| 20260507230628 | 27 | 210 | 0.0 | 0.0 | 0.00 | 0.00 | 0.00 | 89 | 1008.6 |
| 20260507230126 | 27 | 210 | 0.0 | 0.0 | 0.00 | 0.00 | 0.00 | 89 | 1008.5 |
| 20260507225625 | 27 | 210 | 0.0 | 0.0 | 0.00 | 0.00 | 0.00 | 90 | 1008.5 |
| 20260507225122 | 27 | 210 | 0.0 | 0.0 | 0.00 | 0.00 | 0.00 | 90 | 1008.6 |
| 20260507224618 | 27 | 206 | 0.0 | 0.0 | 0.00 | 0.00 | 0.00 | 90 | 1008.6 |
| 20260507224115 | 27 | 206 | 0.0 | 0.0 | 0.00 | 0.00 | 0.00 | 91 | 1008.3 |
| 20260507223611 | 27 | 206 | 0.0 | 0.0 | 0.00 | 0.00 | 0.00 | 91 | 1008.4 |
| 20260507223108 | 27 | 206 | 0.0 | 0.0 | 0.00 | 0.00 | 0.00 | 91 | 1008.2 |
| 20260507222605 | 27 | 206 | 0.0 | 0.0 | 0.00 | 0.00 | 0.00 | 91 | 1008.0 |
| 20260507222101 | 27 | 206 | 0.0 | 0.0 | 0.00 | 0.00 | 0.00 | 91 | 1007.9 |
| 20260507221557 | 27 | 205 | 0.0 | 0.0 | 0.00 | 0.00 | 0.00 | 92 | 1008.0 |
| 20260507221055 | 26 | 205 | 0.0 | 0.0 | 0.00 | 0.00 | 0.00 | 92 | 1008.1 |
| 20260507220552 | 26 | 205 | 0.0 | 0.0 | 0.00 | 0.00 | 0.00 | 92 | 1007.7 |
| 20260507220049 | 26 | 205 | 0.0 | 0.0 | 0.00 | 0.00 | 0.00 | 92 | 1007.8 |
| 20260507215545 | 27 | 201 | 0.0 | 0.0 | 0.00 | 0.00 | 0.00 | 92 | 1007.6 |
| 20260507215044 | 27 | 202 | 0.0 | 0.0 | 0.00 | 0.00 | 0.00 | 92 | 1007.7 |
| 20260507214540 | 27 | 202 | 0.0 | 0.0 | 0.00 | 0.00 | 0.00 | 92 | 1007.6 |
| 20260507214036 | 26 | 202 | 0.0 | 0.0 | 0.00 | 0.00 | 0.00 | 92 | 1007.5 |
| 20260507213533 | 26 | 202 | 0.0 | 0.0 | 0.00 | 0.00 | 0.00 | 92 | 1007.5 |
| 20260507213030 | 26 | 202 | 0.0 | 0.0 | 0.00 | 0.00 | 0.00 | 92 | 1007.4 |
| 20260507212525 | 26 | 202 | 0.0 | 0.0 | 0.00 | 0.00 | 0.00 | 93 | 1007.5 |
| 20260507212022 | 26 | 202 | 0.0 | 0.0 | 0.00 | 0.00 | 0.00 | 93 | 1007.4 |
| 20260507211519 | 27 | 202 | 0.0 | 0.0 | 0.00 | 0.00 | 0.00 | 93 | 1007.7 |
| 20260507211015 | 27 | 202 | 0.0 | 0.0 | 0.00 | 0.00 | 0.00 | 93 | 1007.6 |
| 20260507210513 | 27 | 202 | 0.0 | 0.0 | 0.00 | 0.00 | 0.00 | 93 | 1007.4 |
| 20260507210009 | 27 | 202 | 0.0 | 0.0 | 0.00 | 0.00 | 0.00 | 92 | 1007.5 |
| 20260507205506 | 27 | 202 | 0.0 | 0.0 | 0.00 | 0.00 | 0.00 | 93 | 1007.5 |
| 20260507205002 | 27 | 202 | 0.0 | 0.0 | 0.00 | 0.00 | 0.00 | 93 | 1007.4 |
| 20260507204459 | 27 | 201 | 0.0 | 0.0 | 0.00 | 0.00 | 0.00 | 93 | 1007.4 |
| 20260507203957 | 27 | 201 | 0.0 | 0.0 | 0.00 | 0.00 | 0.00 | 93 | 1007.3 |
| 20260507203454 | 27 | 201 | 0.0 | 0.0 | 0.00 | 0.00 | 0.00 | 93 | 1007.6 |
| 20260507202950 | 26 | 201 | 0.0 | 0.0 | 0.00 | 0.00 | 0.00 | 93 | 1007.4 |
| 20260507202447 | 26 | 201 | 0.0 | 0.0 | 0.00 | 0.00 | 0.00 | 93 | 1007.5 |
| 20260507201943 | 26 | 201 | 0.0 | 0.0 | 0.00 | 0.00 | 0.00 | 93 | 1007.4 |
| 20260507201438 | 27 | 201 | 0.0 | 0.0 | 0.00 | 0.00 | 0.00 | 92 | 1007.3 |
| 20260507200935 | 27 | 201 | 0.0 | 0.0 | 0.00 | 0.00 | 0.00 | 92 | 1007.3 |
| 20260507200431 | 27 | 201 | 0.0 | 0.0 | 0.00 | 0.00 | 0.00 | 92 | 1007.3 |
| 20260507195927 | 27 | 201 | 0.0 | 0.0 | 0.00 | 0.00 | 0.00 | 92 | 1007.1 |
| 20260507195425 | 27 | 201 | 0.0 | 0.0 | 0.00 | 0.00 | 0.00 | 92 | 1007.3 |
| 20260507194922 | 27 | 201 | 0.0 | 0.0 | 0.00 | 0.00 | 0.00 | 92 | 1007.2 |
| 20260507194418 | 27 | 201 | 0.0 | 0.0 | 0.00 | 0.00 | 0.00 | 91 | 1007.3 |
| 20260507193914 | 27 | 201 | 0.0 | 0.0 | 0.00 | 0.00 | 0.00 | 91 | 1007.3 |
| 20260507193412 | 27 | 201 | 0.0 | 0.0 | 0.00 | 0.00 | 0.00 | 91 | 1007.2 |
| 20260507192908 | 27 | 201 | 0.0 | 0.0 | 0.00 | 0.00 | 0.00 | 90 | 1007.2 |
| 20260507192404 | 27 | 201 | 0.0 | 0.0 | 0.00 | 0.00 | 0.00 | 90 | 1007.4 |
| 20260507191901 | 27 | 201 | 0.0 | 0.0 | 0.00 | 0.00 | 0.00 | 90 | 1007.3 |
| 20260507191357 | 27 | 201 | 0.0 | 0.0 | 0.00 | 0.00 | 0.00 | 90 | 1007.1 |
| 20260507190854 | 27 | 201 | 0.0 | 0.0 | 0.00 | 0.00 | 0.00 | 89 | 1007.2 |
| 20260507190352 | 27 | 201 | 0.0 | 0.0 | 0.00 | 0.00 | 0.00 | 89 | 1007.2 |
| 20260507185851 | 27 | 201 | 0.0 | 0.0 | 0.00 | 0.00 | 0.00 | 89 | 1007.1 |
| 20260507185348 | 27 | 201 | 0.0 | 0.0 | 0.00 | 0.00 | 0.00 | 89 | 1007.1 |
| 20260507184844 | 27 | 201 | 0.0 | 0.0 | 0.00 | 0.00 | 0.00 | 89 | 1007.2 |
| 20260507184342 | 27 | 201 | 0.0 | 0.0 | 0.00 | 0.00 | 0.00 | 89 | 1007.2 |
| 20260507183839 | 27 | 201 | 0.0 | 0.0 | 0.00 | 0.00 | 0.00 | 90 | 1007.4 |
| 20260507183336 | 27 | 201 | 0.0 | 0.0 | 0.00 | 0.00 | 0.00 | 90 | 1007.4 |
| 20260507182834 | 27 | 201 | 0.0 | 0.0 | 0.00 | 0.00 | 0.00 | 90 | 1007.2 |
| 20260507182329 | 27 | 201 | 0.0 | 0.0 | 0.00 | 0.00 | 0.00 | 90 | 1007.4 |
| 20260507181826 | 27 | 201 | 0.0 | 0.0 | 0.00 | 0.00 | 0.00 | 90 | 1007.5 |
| 20260507181322 | 27 | 201 | 0.0 | 0.0 | 0.00 | 0.00 | 0.00 | 90 | 1007.5 |
| 20260507180819 | 27 | 201 | 0.0 | 0.0 | 0.00 | 0.00 | 0.00 | 90 | 1007.5 |
| 20260507180316 | 27 | 201 | 0.0 | 0.0 | 0.00 | 0.00 | 0.00 | 90 | 1007.5 |
| 20260507175811 | 27 | 201 | 0.0 | 0.0 | 0.00 | 0.00 | 0.00 | 90 | 1007.4 |
| 20260507175308 | 27 | 201 | 0.0 | 0.0 | 0.00 | 0.00 | 0.00 | 90 | 1007.5 |
| 20260507174805 | 27 | 201 | 0.0 | 0.0 | 0.00 | 0.00 | 0.00 | 90 | 1007.4 |
| 20260507174303 | 27 | 201 | 0.0 | 0.0 | 0.00 | 0.00 | 0.00 | 90 | 1007.7 |
| 20260507173801 | 27 | 201 | 0.0 | 0.0 | 0.00 | 0.00 | 0.00 | 90 | 1007.7 |
| 20260507173258 | 27 | 201 | 0.0 | 0.0 | 0.00 | 0.00 | 0.00 | 90 | 1007.9 |
| 20260507172754 | 27 | 201 | 0.0 | 0.0 | 0.00 | 0.00 | 0.00 | 89 | 1007.8 |
| 20260507172251 | 26 | 201 | 0.0 | 0.0 | 0.00 | 0.00 | 0.00 | 89 | 1008.0 |
| 20260507171746 | 26 | 201 | 0.0 | 0.0 | 0.00 | 0.00 | 0.00 | 90 | 1008.0 |
| 20260507171243 | 26 | 201 | 0.0 | 0.0 | 0.00 | 0.00 | 0.00 | 90 | 1008.1 |
| 20260507170740 | 26 | 201 | 0.0 | 0.0 | 0.00 | 0.00 | 0.00 | 90 | 1008.0 |
| 20260507170237 | 26 | 201 | 0.0 | 0.0 | 0.00 | 0.00 | 0.00 | 90 | 1008.0 |
| 20260507165732 | 26 | 201 | 0.0 | 0.0 | 0.00 | 0.00 | 0.00 | 90 | 1008.0 |
| 20260507165229 | 26 | 201 | 0.0 | 0.0 | 0.00 | 0.00 | 0.00 | 90 | 1008.1 |
| 20260507164725 | 26 | 201 | 0.0 | 0.0 | 0.00 | 0.00 | 0.00 | 90 | 1008.2 |
| 20260507164223 | 26 | 201 | 0.0 | 0.0 | 0.00 | 0.00 | 0.00 | 90 | 1008.0 |
| 20260507163719 | 26 | 201 | 0.0 | 0.0 | 0.00 | 0.00 | 0.00 | 90 | 1008.2 |
| 20260507163218 | 26 | 201 | 0.0 | 0.0 | 0.00 | 0.00 | 0.00 | 89 | 1008.2 |
| 20260507162713 | 26 | 201 | 0.0 | 0.0 | 0.00 | 0.00 | 0.00 | 89 | 1008.3 |
| 20260507162209 | 26 | 201 | 0.0 | 0.0 | 0.00 | 0.00 | 0.00 | 89 | 1008.3 |
| 20260507161706 | 26 | 192 | 0.0 | 0.0 | 0.00 | 0.00 | 0.00 | 89 | 1008.0 |
| 20260507161203 | 26 | 192 | 0.0 | 0.0 | 0.00 | 0.00 | 0.00 | 89 | 1008.1 |
| 20260507160658 | 26 | 192 | 0.0 | 0.0 | 0.00 | 0.00 | 0.00 | 89 | 1008.1 |
| 20260507160155 | 26 | 192 | 0.0 | 0.0 | 0.00 | 0.00 | 0.00 | 89 | 1007.9 |
| 20260507155651 | 26 | 192 | 0.0 | 0.0 | 0.00 | 0.00 | 0.00 | 89 | 1008.2 |
| 20260507155148 | 26 | 192 | 0.0 | 0.0 | 0.00 | 0.00 | 0.00 | 89 | 1008.3 |
| 20260507154644 | 26 | 192 | 0.0 | 0.0 | 0.00 | 0.00 | 0.00 | 89 | 1008.5 |
| 20260507154142 | 26 | 192 | 0.0 | 0.0 | 0.00 | 0.00 | 0.00 | 88 | 1008.5 |
| 20260507153638 | 26 | 192 | 0.0 | 0.0 | 0.00 | 0.00 | 0.00 | 89 | 1008.4 |
| 20260507153135 | 26 | 192 | 0.0 | 0.0 | 0.00 | 0.00 | 0.00 | 88 | 1008.3 |
| 20260507152631 | 26 | 192 | 0.0 | 0.0 | 0.00 | 0.00 | 0.00 | 89 | 1008.4 |
| 20260507152127 | 26 | 192 | 0.0 | 0.0 | 0.00 | 0.00 | 0.00 | 88 | 1008.2 |
| 20260507151623 | 26 | 192 | 0.0 | 0.0 | 0.00 | 0.00 | 0.00 | 88 | 1008.0 |
| 20260507151121 | 26 | 192 | 0.0 | 0.0 | 0.00 | 0.00 | 0.00 | 88 | 1008.1 |
| 20260507150618 | 27 | 192 | 0.0 | 0.0 | 0.00 | 0.00 | 0.00 | 88 | 1008.5 |
| 20260507150115 | 27 | 192 | 0.0 | 0.0 | 0.00 | 0.00 | 0.00 | 88 | 1008.3 |
| 20260507145615 | 27 | 192 | 0.0 | 0.0 | 0.00 | 0.00 | 0.00 | 88 | 1008.5 |
| 20260507145113 | 27 | 192 | 0.0 | 0.0 | 0.00 | 0.00 | 0.00 | 87 | 1008.5 |
| 20260507144613 | 27 | 192 | 0.0 | 0.0 | 0.00 | 0.00 | 0.00 | 87 | 1008.5 |
| 20260507144112 | 27 | 192 | 0.0 | 0.0 | 0.00 | 0.00 | 0.00 | 87 | 1008.5 |
| 20260507143608 | 27 | 192 | 0.0 | 0.0 | 0.00 | 0.00 | 0.00 | 87 | 1008.6 |
| 20260507143106 | 27 | 191 | 0.0 | 0.0 | 0.00 | 0.00 | 0.00 | 87 | 1008.5 |
| 20260507142601 | 27 | 191 | 0.0 | 0.0 | 0.00 | 0.00 | 0.00 | 87 | 1008.6 |
| 20260507142058 | 27 | 191 | 0.0 | 0.0 | 0.00 | 0.00 | 0.00 | 87 | 1008.4 |
| 20260507141554 | 27 | 191 | 0.0 | 0.0 | 0.00 | 0.00 | 0.00 | 88 | 1008.6 |
| 20260507141051 | 27 | 192 | 0.0 | 0.0 | 0.00 | 0.00 | 0.00 | 87 | 1008.4 |
| 20260507140548 | 27 | 192 | 0.0 | 0.0 | 0.00 | 0.00 | 0.00 | 88 | 1008.7 |
| 20260507140045 | 27 | 192 | 0.0 | 0.0 | 0.00 | 0.00 | 0.00 | 87 | 1008.5 |
| 20260507135542 | 27 | 192 | 0.0 | 0.0 | 0.00 | 0.00 | 0.00 | 87 | 1008.5 |
| 20260507135039 | 27 | 192 | 0.0 | 0.0 | 0.00 | 0.00 | 0.00 | 87 | 1008.6 |
| 20260507134536 | 27 | 192 | 0.0 | 0.0 | 0.00 | 0.00 | 0.00 | 86 | 1008.4 |
| 20260507134031 | 27 | 192 | 0.0 | 0.0 | 0.00 | 0.00 | 0.00 | 86 | 1008.1 |
| 20260507133528 | 27 | 192 | 0.0 | 0.0 | 0.00 | 0.00 | 0.00 | 86 | 1008.5 |
| 20260507133026 | 27 | 192 | 0.0 | 0.0 | 0.00 | 0.00 | 0.00 | 86 | 1008.2 |
| 20260507132522 | 27 | 191 | 0.0 | 0.0 | 0.00 | 0.00 | 0.00 | 85 | 1008.3 |
| 20260507132019 | 27 | 191 | 0.0 | 0.0 | 0.00 | 0.00 | 0.00 | 85 | 1008.1 |
| 20260507131516 | 27 | 190 | 0.0 | 0.0 | 0.00 | 0.00 | 0.00 | 85 | 1008.2 |
| 20260507131013 | 27 | 190 | 0.0 | 0.0 | 0.00 | 0.00 | 0.00 | 85 | 1008.4 |
| 20260507130510 | 27 | 190 | 0.0 | 0.0 | 0.00 | 0.00 | 0.00 | 85 | 1008.2 |
| 20260507130008 | 27 | 190 | 0.0 | 0.0 | 0.00 | 0.00 | 0.00 | 85 | 1008.0 |